createdAt,value
2023-03-17T00:01:57.638Z,1.14
2023-03-17T00:04:27.930Z,1.11
2023-03-17T00:06:56.824Z,1.11
2023-03-17T00:09:28.561Z,1.11
2023-03-17T00:11:56.550Z,1.12
2023-03-17T00:14:24.591Z,1.11
2023-03-17T00:16:53.337Z,1.09
2023-03-17T00:19:28.624Z,1.11
2023-03-17T00:21:57.849Z,1.11
2023-03-17T00:24:26.179Z,1.10
2023-03-17T00:26:54.232Z,1.08
2023-03-17T00:29:22.275Z,1.06
2023-03-17T00:31:53.645Z,1.01
2023-03-17T00:34:24.137Z,0.87
2023-03-17T00:36:52.119Z,0.76
2023-03-17T00:39:20.913Z,0.75
2023-03-17T00:41:49.212Z,0.77
2023-03-17T00:44:17.502Z,0.73
2023-03-17T00:46:46.690Z,0.70
2023-03-17T00:51:46.157Z,0.73
2023-03-17T00:54:17.232Z,0.71
2023-03-17T00:56:46.771Z,0.67
2023-03-17T00:59:26.975Z,0.67
2023-03-17T01:01:55.497Z,0.66
2023-03-17T01:04:24.040Z,0.58
2023-03-17T01:06:53.092Z,0.52
2023-03-17T01:09:25.893Z,0.50
2023-03-17T01:11:55.133Z,0.47
2023-03-17T01:14:24.812Z,0.51
2023-03-17T01:16:53.262Z,0.55
2023-03-17T01:19:22.097Z,0.60
2023-03-17T01:21:50.317Z,0.66
2023-03-17T01:24:18.618Z,0.72
2023-03-17T01:26:47.070Z,0.80
2023-03-17T01:29:16.514Z,0.85
2023-03-17T01:31:46.501Z,0.88
2023-03-17T01:34:14.555Z,0.89
2023-03-17T01:36:43.917Z,0.86
2023-03-17T01:39:12.969Z,0.85
2023-03-17T01:41:40.949Z,0.84
2023-03-17T01:44:17.238Z,0.78
2023-03-17T01:46:47.405Z,0.56
2023-03-17T01:49:33.182Z,0.45
2023-03-17T01:52:14.335Z,0.37
2023-03-17T01:54:53.305Z,0.35
2023-03-17T01:57:43.052Z,0.39
2023-03-17T02:00:16.249Z,0.31
2023-03-17T02:02:52.698Z,0.25
2023-03-17T02:05:29.911Z,0.31
2023-03-17T02:07:57.893Z,0.24
2023-03-17T02:10:30.470Z,0.12
2023-03-17T02:13:05.940Z,0.09
2023-03-17T02:15:40.478Z,0.12
2023-03-17T02:18:09.819Z,0.11
2023-03-17T02:20:38.337Z,0.14
2023-03-17T02:23:07.554Z,0.21
2023-03-17T02:25:36.936Z,0.16
2023-03-17T02:28:10.507Z,0.11
2023-03-17T02:30:38.561Z,0.14
2023-03-17T02:33:06.601Z,0.16
2023-03-17T02:35:35.588Z,0.17
2023-03-17T02:38:03.766Z,0.14
2023-03-17T02:40:33.257Z,0.05
2023-03-17T02:43:01.306Z,-0.01
2023-03-17T02:45:29.717Z,-0.07
2023-03-17T02:47:58.623Z,-0.15
2023-03-17T02:50:28.900Z,-0.14
2023-03-17T02:52:57.068Z,-0.22
2023-03-17T02:55:24.994Z,-0.38
2023-03-17T02:57:52.939Z,-0.50
2023-03-17T03:00:22.452Z,-0.55
2023-03-17T03:02:50.434Z,-0.58
2023-03-17T03:05:20.000Z,-0.57
2023-03-17T03:07:47.978Z,-0.56
2023-03-17T03:10:16.255Z,-0.57
2023-03-17T03:12:44.922Z,-0.63
2023-03-17T03:15:13.201Z,-0.61
2023-03-17T03:17:42.093Z,-0.56
2023-03-17T03:20:11.614Z,-0.55
2023-03-17T03:22:39.540Z,-0.60
2023-03-17T03:25:08.738Z,-0.60
2023-03-17T03:27:36.723Z,-0.63
2023-03-17T03:30:07.937Z,-0.66
2023-03-17T03:32:35.981Z,-0.71
2023-03-17T03:35:04.485Z,-0.70
2023-03-17T03:37:32.458Z,-0.69
2023-03-17T03:40:00.614Z,-0.73
2023-03-17T03:42:28.819Z,-0.73
2023-03-17T03:44:56.764Z,-0.79
2023-03-17T03:47:24.770Z,-0.86
2023-03-17T03:49:52.734Z,-0.85
2023-03-17T03:52:21.160Z,-0.83
2023-03-17T03:54:49.638Z,-0.79
2023-03-17T03:57:17.781Z,-0.79
2023-03-17T03:59:46.158Z,-0.81
2023-03-17T04:02:14.126Z,-0.83
2023-03-17T04:04:42.794Z,-0.89
2023-03-17T04:07:11.225Z,-0.97
2023-03-17T04:09:39.402Z,-1.06
2023-03-17T04:12:08.360Z,-1.19
2023-03-17T04:14:36.661Z,-1.23
2023-03-17T04:17:05.280Z,-1.27
2023-03-17T04:19:33.231Z,-1.31
2023-03-17T04:22:01.643Z,-1.30
2023-03-17T04:24:29.605Z,-1.28
2023-03-17T04:26:57.936Z,-1.27
2023-03-17T04:29:25.837Z,-1.21
2023-03-17T04:31:53.901Z,-1.21
2023-03-17T04:34:23.153Z,-1.18
2023-03-17T04:36:51.652Z,-1.14
2023-03-17T04:39:19.672Z,-1.13
2023-03-17T04:41:48.255Z,-1.16
2023-03-17T04:44:16.433Z,-1.19
2023-03-17T04:46:44.397Z,-1.21
2023-03-17T04:49:13.018Z,-1.19
2023-03-17T04:51:41.241Z,-1.19
2023-03-17T04:54:09.175Z,-1.16
2023-03-17T04:56:37.161Z,-1.17
2023-03-17T04:59:05.736Z,-1.22
2023-03-17T05:01:33.830Z,-1.28
2023-03-17T05:04:01.778Z,-1.31
2023-03-17T05:06:30.856Z,-1.32
2023-03-17T05:08:58.751Z,-1.33
2023-03-17T05:11:26.685Z,-1.32
2023-03-17T05:13:54.679Z,-1.29
2023-03-17T05:16:23.534Z,-1.25
2023-03-17T05:18:51.923Z,-1.17
2023-03-17T05:21:19.824Z,-1.11
2023-03-17T05:23:47.739Z,-1.08
2023-03-17T05:26:16.268Z,-1.00
2023-03-17T05:28:44.288Z,-0.90
2023-03-17T05:31:12.379Z,-0.81
2023-03-17T05:33:40.409Z,-0.68
2023-03-17T05:36:08.714Z,-0.53
2023-03-17T05:38:37.077Z,-0.40
2023-03-17T05:41:05.518Z,-0.27
2023-03-17T05:43:33.939Z,-0.16
2023-03-17T05:46:02.056Z,-0.03
2023-03-17T05:48:30.511Z,0.12
2023-03-17T05:50:58.596Z,0.29
2023-03-17T05:53:26.527Z,0.42
2023-03-17T05:55:54.503Z,0.55
2023-03-17T05:58:22.883Z,0.67
2023-03-17T06:00:51.226Z,0.79
2023-03-17T06:03:19.572Z,0.89
2023-03-17T06:05:48.146Z,0.99
2023-03-17T06:08:16.298Z,1.10
2023-03-17T06:10:44.377Z,1.18
2023-03-17T06:13:12.842Z,1.27
2023-03-17T06:15:42.366Z,1.34
2023-03-17T06:18:10.432Z,1.40
2023-03-17T06:20:38.453Z,1.46
2023-03-17T06:23:06.960Z,1.53
2023-03-17T06:25:35.554Z,1.61
2023-03-17T06:28:05.579Z,1.68
2023-03-17T06:30:35.253Z,1.76
2023-03-17T06:33:04.611Z,1.81
2023-03-17T06:35:33.943Z,1.86
2023-03-17T06:38:02.328Z,1.94
2023-03-17T06:40:30.584Z,2.00
2023-03-17T06:42:58.644Z,2.05
2023-03-17T06:45:26.886Z,2.09
2023-03-17T06:47:55.164Z,2.16
2023-03-17T06:50:23.198Z,2.18
2023-03-17T06:52:51.534Z,2.26
2023-03-17T06:55:19.641Z,2.30
2023-03-17T06:57:50.434Z,2.33
2023-03-17T07:00:21.166Z,2.34
2023-03-17T07:02:49.683Z,2.35
2023-03-17T07:05:17.992Z,2.37
2023-03-17T07:07:46.373Z,2.39
2023-03-17T07:10:15.909Z,2.48
2023-03-17T07:12:44.916Z,2.50
2023-03-17T07:15:12.976Z,2.54
2023-03-17T07:17:41.593Z,2.53
2023-03-17T07:20:11.792Z,2.57
2023-03-17T07:22:41.113Z,2.58
2023-03-17T07:25:09.787Z,2.62
2023-03-17T07:27:39.234Z,2.67
2023-03-17T07:30:07.865Z,2.71
2023-03-17T07:32:36.326Z,2.83
2023-03-17T07:35:05.157Z,2.91
2023-03-17T07:37:33.210Z,2.99
2023-03-17T07:40:01.193Z,3.04
2023-03-17T07:42:29.176Z,3.10
2023-03-17T07:44:57.289Z,3.14
2023-03-17T07:47:25.269Z,3.17
2023-03-17T07:49:53.526Z,3.22
2023-03-17T07:52:21.589Z,3.26
2023-03-17T07:54:51.669Z,3.34
2023-03-17T07:57:19.681Z,3.40
2023-03-17T07:59:47.614Z,3.47
2023-03-17T08:02:17.144Z,3.56
2023-03-17T08:04:45.674Z,3.66
2023-03-17T08:07:14.814Z,3.75
2023-03-17T08:09:43.031Z,3.92
2023-03-17T08:12:11.696Z,4.08
2023-03-17T08:14:39.620Z,4.18
2023-03-17T08:17:08.217Z,4.24
2023-03-17T08:19:36.395Z,4.31
2023-03-17T08:22:04.560Z,4.37
2023-03-17T08:24:33.012Z,4.43
2023-03-17T08:27:01.288Z,4.50
2023-03-17T08:29:30.060Z,4.56
2023-03-17T08:31:58.203Z,4.65
2023-03-17T08:34:26.525Z,4.73
2023-03-17T08:36:54.585Z,4.81
2023-03-17T08:39:22.618Z,4.92
2023-03-17T08:41:51.039Z,5.02
2023-03-17T08:44:21.930Z,5.09
2023-03-17T08:46:51.608Z,5.11
2023-03-17T08:49:19.828Z,5.17
2023-03-17T08:51:47.799Z,5.25
2023-03-17T08:54:16.024Z,5.31
2023-03-17T08:56:44.057Z,5.33
2023-03-17T08:59:12.466Z,5.38
2023-03-17T09:01:40.523Z,5.48
2023-03-17T09:04:08.971Z,5.57
2023-03-17T09:06:37.708Z,5.70
2023-03-17T09:09:06.919Z,5.83
2023-03-17T09:11:35.101Z,5.88
2023-03-17T09:14:03.313Z,5.91
2023-03-17T09:16:34.231Z,5.99
2023-03-17T09:19:02.297Z,6.07
2023-03-17T09:21:30.245Z,6.12
2023-03-17T09:24:00.369Z,6.19
2023-03-17T09:26:29.756Z,6.27
2023-03-17T09:28:57.820Z,6.33
2023-03-17T09:31:26.956Z,6.39
2023-03-17T09:33:55.318Z,6.44
2023-03-17T09:36:23.798Z,6.50
2023-03-17T09:38:52.316Z,6.55
2023-03-17T09:41:58.509Z,6.58
2023-03-17T09:44:54.648Z,6.60
2023-03-17T09:47:46.509Z,6.61
2023-03-17T09:50:24.375Z,6.63
2023-03-17T09:52:56.886Z,6.65
2023-03-17T09:55:29.616Z,6.66
2023-03-17T09:57:58.902Z,6.70
2023-03-17T10:00:31.239Z,6.71
2023-03-17T10:03:00.001Z,6.68
2023-03-17T10:05:31.425Z,6.74
2023-03-17T10:08:30.761Z,6.76
2023-03-17T10:11:10.929Z,6.78
2023-03-17T10:13:44.554Z,6.85
2023-03-17T10:16:17.668Z,6.91
2023-03-17T10:18:57.001Z,6.90
2023-03-17T10:21:33.734Z,6.92
2023-03-17T10:24:04.809Z,6.93
2023-03-17T10:26:42.786Z,6.95
2023-03-17T10:29:16.240Z,6.95
2023-03-17T10:31:45.006Z,6.91
2023-03-17T10:34:13.379Z,6.98
2023-03-17T10:36:47.017Z,7.03
2023-03-17T10:39:19.872Z,7.12
2023-03-17T10:42:09.727Z,7.19
2023-03-17T10:44:56.894Z,7.20
2023-03-17T10:47:38.453Z,7.23
2023-03-17T10:50:23.222Z,7.29
2023-03-17T10:52:59.268Z,7.33
2023-03-17T10:55:53.833Z,7.31
2023-03-17T10:58:37.029Z,7.35
2023-03-17T11:01:20.867Z,7.42
2023-03-17T11:03:48.870Z,7.43
2023-03-17T11:06:19.354Z,7.42
2023-03-17T11:08:55.375Z,7.47
2023-03-17T11:11:34.786Z,7.47
2023-03-17T11:14:13.461Z,7.46
2023-03-17T11:16:54.004Z,7.46
2023-03-17T11:19:32.836Z,7.53
2023-03-17T11:22:10.059Z,7.53
2023-03-17T11:25:13.346Z,7.50
2023-03-17T11:27:53.786Z,7.55
2023-03-17T11:30:34.717Z,7.55
2023-03-17T11:33:28.108Z,7.63
2023-03-17T11:36:03.833Z,7.67
2023-03-17T11:38:37.592Z,7.68
2023-03-17T11:41:21.299Z,7.71
2023-03-17T11:43:55.756Z,7.76
2023-03-17T11:46:34.416Z,7.81
2023-03-17T11:49:11.316Z,7.83
2023-03-17T11:52:12.289Z,7.83
2023-03-17T11:55:18.749Z,7.92
2023-03-17T11:57:58.212Z,7.97
2023-03-17T12:00:31.028Z,7.99
2023-03-17T12:03:17.698Z,8.05
2023-03-17T12:05:48.177Z,8.11
2023-03-17T12:08:32.984Z,8.09
2023-03-17T12:11:06.112Z,8.14
2023-03-17T12:13:46.740Z,8.11
2023-03-17T12:16:29.779Z,8.11
2023-03-17T12:19:10.301Z,8.07
2023-03-17T12:21:50.391Z,8.09
2023-03-17T12:24:23.992Z,8.11
2023-03-17T12:26:54.425Z,8.16
2023-03-17T12:29:43.308Z,8.19
2023-03-17T12:32:24.704Z,8.25
2023-03-17T12:34:57.331Z,8.36
2023-03-17T12:37:28.208Z,8.39
2023-03-17T12:40:15.116Z,8.43
2023-03-17T12:42:47.692Z,8.39
2023-03-17T12:45:37.267Z,8.34
2023-03-17T12:48:23.726Z,8.37
2023-03-17T12:51:30.089Z,8.38
2023-03-17T12:54:00.221Z,8.41
2023-03-17T12:56:31.519Z,8.45
2023-03-17T12:59:07.223Z,8.52
2023-03-17T13:01:43.343Z,8.53
2023-03-17T13:04:38.195Z,8.51
2023-03-17T13:07:15.688Z,8.47
2023-03-17T13:10:09.932Z,8.46
2023-03-17T13:12:41.003Z,8.47
2023-03-17T13:15:35.030Z,8.49
2023-03-17T13:18:12.296Z,8.54
2023-03-17T13:20:57.486Z,8.56
2023-03-17T13:23:41.765Z,8.56
2023-03-17T13:26:20.998Z,8.55
2023-03-17T13:28:51.153Z,8.55
2023-03-17T13:31:29.216Z,8.53
2023-03-17T13:34:03.543Z,8.48
2023-03-17T13:36:41.978Z,8.49
2023-03-17T13:39:42.263Z,8.49
2023-03-17T13:42:19.065Z,8.45
2023-03-17T13:45:13.704Z,8.43
2023-03-17T13:47:43.009Z,8.43
2023-03-17T13:50:32.787Z,8.40
2023-03-17T13:53:04.866Z,8.36
2023-03-17T13:55:37.937Z,8.35
2023-03-17T13:58:11.434Z,8.33
2023-03-17T14:00:43.792Z,8.34
2023-03-17T14:03:18.138Z,8.32
2023-03-17T14:05:50.971Z,8.31
2023-03-17T14:08:32.447Z,8.32
2023-03-17T14:11:34.998Z,8.26
2023-03-17T14:14:32.193Z,8.26
2023-03-17T14:17:24.034Z,8.23
2023-03-17T14:20:27.141Z,8.23
2023-03-17T14:23:06.894Z,8.23
2023-03-17T14:25:38.685Z,8.26
2023-03-17T14:28:12.788Z,8.30
2023-03-17T14:30:54.242Z,8.31
2023-03-17T14:33:31.032Z,8.34
2023-03-17T14:36:01.909Z,8.37
2023-03-17T14:38:35.607Z,8.35
2023-03-17T14:41:14.336Z,8.31
2023-03-17T14:43:44.020Z,8.30
2023-03-17T14:46:25.893Z,8.30
2023-03-17T14:49:14.431Z,8.31
2023-03-17T14:51:43.622Z,8.30
2023-03-17T14:54:18.328Z,8.30
2023-03-17T14:56:49.381Z,8.30
2023-03-17T14:59:26.660Z,8.28
2023-03-17T15:02:02.993Z,8.26
2023-03-17T15:04:33.623Z,8.22
2023-03-17T15:07:04.915Z,8.20
2023-03-17T15:09:41.225Z,8.13
2023-03-17T15:12:23.504Z,8.04
2023-03-17T15:14:54.293Z,7.99
2023-03-17T15:17:36.805Z,7.97
2023-03-17T15:20:12.348Z,7.94
2023-03-17T15:23:01.013Z,7.87
2023-03-17T15:25:38.146Z,7.85
2023-03-17T15:28:18.423Z,7.83
2023-03-17T15:30:51.938Z,7.81
2023-03-17T15:33:24.145Z,7.77
2023-03-17T15:35:52.416Z,7.72
2023-03-17T15:38:21.606Z,7.67
2023-03-17T15:40:50.078Z,7.60
2023-03-17T15:43:22.148Z,7.56
2023-03-17T15:46:22.455Z,7.52
2023-03-17T15:48:51.047Z,7.48
2023-03-17T15:51:19.228Z,7.43
2023-03-17T15:53:47.480Z,7.37
2023-03-17T15:56:21.005Z,7.33
2023-03-17T15:58:52.601Z,7.31
2023-03-17T16:01:21.312Z,7.27
2023-03-17T16:03:49.654Z,7.25
2023-03-17T16:06:21.481Z,7.20
2023-03-17T16:08:50.479Z,7.16
2023-03-17T16:11:20.641Z,7.14
2023-03-17T16:13:48.562Z,7.11
2023-03-17T16:16:22.154Z,7.06
2023-03-17T16:18:51.685Z,7.02
2023-03-17T16:21:20.421Z,6.99
2023-03-17T16:23:50.602Z,6.97
2023-03-17T16:26:18.642Z,6.92
2023-03-17T16:28:47.780Z,6.89
2023-03-17T16:31:23.174Z,6.86
2023-03-17T16:33:52.817Z,6.86
2023-03-17T16:36:24.392Z,6.82
2023-03-17T16:38:52.857Z,6.78
2023-03-17T16:41:25.564Z,6.74
2023-03-17T16:43:58.995Z,6.68
2023-03-17T16:46:31.715Z,6.62
2023-03-17T16:49:02.171Z,6.54
2023-03-17T16:51:30.467Z,6.50
2023-03-17T16:53:58.401Z,6.45
2023-03-17T16:56:27.498Z,6.36
2023-03-17T16:58:55.503Z,6.29
2023-03-17T17:01:28.767Z,6.23
2023-03-17T17:03:56.962Z,6.15
2023-03-17T17:06:25.147Z,6.09
2023-03-17T17:08:53.249Z,6.02
2023-03-17T17:11:21.538Z,5.95
2023-03-17T17:13:49.979Z,5.88
2023-03-17T17:16:40.002Z,5.84
2023-03-17T17:19:16.989Z,5.77
2023-03-17T17:21:45.263Z,5.71
2023-03-17T17:24:13.911Z,5.66
2023-03-17T17:26:41.980Z,5.61
2023-03-17T17:29:10.052Z,5.57
2023-03-17T17:31:38.541Z,5.52
2023-03-17T17:34:06.518Z,5.49
2023-03-17T17:36:34.469Z,5.47
2023-03-17T17:39:02.495Z,5.44
2023-03-17T17:41:32.534Z,5.39
2023-03-17T17:44:00.660Z,5.34
2023-03-17T17:46:28.821Z,5.30
2023-03-17T17:48:57.310Z,5.27
2023-03-17T17:51:25.613Z,5.22
2023-03-17T17:53:53.583Z,5.18
2023-03-17T17:56:21.688Z,5.14
2023-03-17T17:58:50.048Z,5.12
2023-03-17T18:01:22.202Z,5.06
2023-03-17T18:03:50.517Z,4.99
2023-03-17T18:06:18.691Z,4.95
2023-03-17T18:08:47.292Z,4.90
2023-03-17T18:11:15.332Z,4.85
2023-03-17T18:13:43.253Z,4.82
2023-03-17T18:16:16.396Z,4.77
2023-03-17T18:18:46.245Z,4.71
2023-03-17T18:21:14.336Z,4.70
2023-03-17T18:23:46.979Z,4.67
2023-03-17T18:26:17.250Z,4.62
2023-03-17T18:28:45.629Z,4.62
2023-03-17T18:31:18.139Z,4.60
2023-03-17T18:33:52.784Z,4.57
2023-03-17T18:36:21.596Z,4.58
2023-03-17T18:38:49.674Z,4.55
2023-03-17T18:41:17.890Z,4.54
2023-03-17T18:43:46.100Z,4.52
2023-03-17T18:46:14.382Z,4.49
2023-03-17T18:48:43.233Z,4.47
2023-03-17T18:51:11.419Z,4.44
2023-03-17T18:53:39.572Z,4.40
2023-03-17T18:56:07.936Z,4.37
2023-03-17T18:58:37.371Z,4.35
2023-03-17T19:01:05.689Z,4.33
2023-03-17T19:03:34.142Z,4.30
2023-03-17T19:06:17.331Z,4.27
2023-03-17T19:08:48.496Z,4.23
2023-03-17T19:11:19.443Z,4.19
2023-03-17T19:13:47.585Z,4.16
2023-03-17T19:16:16.737Z,4.14
2023-03-17T19:18:45.730Z,4.09
2023-03-17T19:21:13.848Z,4.07
2023-03-17T19:23:42.272Z,4.02
2023-03-17T19:26:10.499Z,4.00
2023-03-17T19:28:38.618Z,3.99
2023-03-17T19:31:06.894Z,3.96
2023-03-17T19:33:35.197Z,3.89
2023-03-17T19:36:12.585Z,3.85
2023-03-17T19:38:41.183Z,3.84
2023-03-17T19:41:09.371Z,3.80
2023-03-17T19:43:41.267Z,3.79
2023-03-17T19:46:12.294Z,3.76
2023-03-17T19:48:40.974Z,3.73
2023-03-17T19:51:09.546Z,3.71
2023-03-17T19:53:38.146Z,3.67
2023-03-17T19:56:07.407Z,3.63
2023-03-17T19:58:36.659Z,3.60
2023-03-17T20:01:05.744Z,3.58
2023-03-17T20:03:35.529Z,3.57
2023-03-17T20:06:06.800Z,3.54
2023-03-17T20:08:36.378Z,3.50
2023-03-17T20:11:06.135Z,3.47
2023-03-17T20:13:35.800Z,3.42
2023-03-17T20:16:04.778Z,3.40
2023-03-17T20:18:33.734Z,3.36
2023-03-17T20:21:05.746Z,3.33
2023-03-17T20:23:34.115Z,3.28
2023-03-17T20:26:02.300Z,3.28
2023-03-17T20:28:30.610Z,3.29
2023-03-17T20:31:00.470Z,3.26
2023-03-17T20:33:28.504Z,3.20
2023-03-17T20:35:56.609Z,3.18
2023-03-17T20:38:25.670Z,3.17
2023-03-17T20:40:53.683Z,3.13
2023-03-17T20:43:21.959Z,3.09
2023-03-17T20:46:23.832Z,3.08
2023-03-17T20:48:58.537Z,3.02
2023-03-17T20:51:27.482Z,2.98
2023-03-17T20:53:56.865Z,2.94
2023-03-17T20:56:26.566Z,2.92
2023-03-17T20:58:56.105Z,2.90
2023-03-17T21:01:25.850Z,2.88
2023-03-17T21:03:53.817Z,2.85
2023-03-17T21:06:24.731Z,2.84
2023-03-17T21:08:55.103Z,2.82
2023-03-17T21:11:23.268Z,2.79
2023-03-17T21:13:51.904Z,2.79
2023-03-17T21:16:25.213Z,2.77
2023-03-17T21:18:53.692Z,2.77
2023-03-17T21:21:22.379Z,2.75
2023-03-17T21:23:51.350Z,2.72
2023-03-17T21:26:20.640Z,2.71
2023-03-17T21:28:48.730Z,2.70
2023-03-17T21:31:17.431Z,2.68
2023-03-17T21:33:48.493Z,2.63
2023-03-17T21:36:16.874Z,2.62
2023-03-17T21:38:45.614Z,2.60
2023-03-17T21:41:21.696Z,2.57
2023-03-17T21:43:50.574Z,2.55
2023-03-17T21:46:19.173Z,2.52
2023-03-17T21:48:47.062Z,2.50
2023-03-17T21:51:15.016Z,2.44
2023-03-17T21:53:43.527Z,2.40
2023-03-17T21:56:12.598Z,2.38
2023-03-17T21:58:41.096Z,2.37
2023-03-17T22:01:10.134Z,2.32
2023-03-17T22:03:40.228Z,2.30
2023-03-17T22:06:09.952Z,2.29
2023-03-17T22:08:38.023Z,2.28
2023-03-17T22:11:19.627Z,2.23
2023-03-17T22:17:20.644Z,2.23
2023-03-17T22:19:48.817Z,2.16
2023-03-17T22:22:16.752Z,2.14
2023-03-17T22:24:44.809Z,2.10
2023-03-17T22:27:13.500Z,2.05
2023-03-17T22:29:41.683Z,2.03
2023-03-17T22:32:10.355Z,1.98
2023-03-17T22:34:38.288Z,1.96
2023-03-17T22:37:07.284Z,1.94
2023-03-17T22:39:35.488Z,1.93
2023-03-17T22:42:03.503Z,1.89
2023-03-17T22:44:31.802Z,1.85
2023-03-17T22:46:59.949Z,1.84
2023-03-17T22:49:28.159Z,1.82
2023-03-17T22:51:56.346Z,1.79
2023-03-17T22:54:24.298Z,1.78
2023-03-17T22:56:52.274Z,1.77
2023-03-17T22:59:20.177Z,1.76
2023-03-17T23:01:48.165Z,1.73
2023-03-17T23:04:17.390Z,1.68
2023-03-17T23:06:45.364Z,1.67
2023-03-17T23:09:13.467Z,1.64
2023-03-17T23:11:42.345Z,1.62
2023-03-17T23:14:11.372Z,1.61
2023-03-17T23:16:39.399Z,1.57
2023-03-17T23:19:07.451Z,1.55
2023-03-17T23:21:38.037Z,1.53
2023-03-17T23:24:07.894Z,1.52
2023-03-17T23:26:37.072Z,1.51
2023-03-17T23:29:07.407Z,1.47
2023-03-17T23:31:37.217Z,1.45
2023-03-17T23:34:06.740Z,1.41
2023-03-17T23:36:40.164Z,1.40
2023-03-17T23:39:10.407Z,1.39
2023-03-17T23:41:38.419Z,1.38
2023-03-17T23:44:06.765Z,1.37
2023-03-17T23:46:35.033Z,1.38
2023-03-17T23:49:04.409Z,1.36
2023-03-17T23:51:33.472Z,1.36
2023-03-17T23:54:01.477Z,1.37
2023-03-17T23:56:29.533Z,1.36
2023-03-17T23:58:57.525Z,1.35
